sensor_id;sensor_type;location;lat;lon;timestamp;temperature;humidity
11239;DHT22;5677;48.488;13.436;2023-04-06T00:02:17;12.30;40.40
11239;DHT22;5677;48.488;13.436;2023-04-06T00:04:44;12.30;40.40
11239;DHT22;5677;48.488;13.436;2023-04-06T00:07:10;12.30;40.40
11239;DHT22;5677;48.488;13.436;2023-04-06T00:09:37;12.30;40.40
11239;DHT22;5677;48.488;13.436;2023-04-06T00:12:04;12.30;40.40
11239;DHT22;5677;48.488;13.436;2023-04-06T00:14:31;12.30;40.50
11239;DHT22;5677;48.488;13.436;2023-04-06T00:16:59;12.30;40.50
11239;DHT22;5677;48.488;13.436;2023-04-06T00:19:25;12.30;40.50
11239;DHT22;5677;48.488;13.436;2023-04-06T00:21:52;12.20;40.40
11239;DHT22;5677;48.488;13.436;2023-04-06T00:24:19;12.20;40.40
11239;DHT22;5677;48.488;13.436;2023-04-06T00:26:46;12.20;40.40
11239;DHT22;5677;48.488;13.436;2023-04-06T00:29:12;12.20;40.40
11239;DHT22;5677;48.488;13.436;2023-04-06T00:31:40;12.20;40.50
11239;DHT22;5677;48.488;13.436;2023-04-06T00:34:09;12.20;40.40
11239;DHT22;5677;48.488;13.436;2023-04-06T00:36:36;12.20;40.50
11239;DHT22;5677;48.488;13.436;2023-04-06T00:39:02;12.20;40.50
11239;DHT22;5677;48.488;13.436;2023-04-06T00:41:29;12.20;40.50
11239;DHT22;5677;48.488;13.436;2023-04-06T00:43:56;12.20;40.50
11239;DHT22;5677;48.488;13.436;2023-04-06T00:46:23;12.20;40.60
11239;DHT22;5677;48.488;13.436;2023-04-06T00:48:50;12.20;40.60
11239;DHT22;5677;48.488;13.436;2023-04-06T00:51:18;12.20;40.60
11239;DHT22;5677;48.488;13.436;2023-04-06T00:53:45;12.20;40.60
11239;DHT22;5677;48.488;13.436;2023-04-06T00:56:12;12.20;40.60
11239;DHT22;5677;48.488;13.436;2023-04-06T00:58:38;12.10;40.60
11239;DHT22;5677;48.488;13.436;2023-04-06T01:01:06;12.20;40.70
11239;DHT22;5677;48.488;13.436;2023-04-06T01:03:33;12.20;40.70
11239;DHT22;5677;48.488;13.436;2023-04-06T01:05:59;12.20;40.60
11239;DHT22;5677;48.488;13.436;2023-04-06T01:08:27;12.20;40.70
11239;DHT22;5677;48.488;13.436;2023-04-06T01:10:54;12.20;40.70
11239;DHT22;5677;48.488;13.436;2023-04-06T01:13:21;12.20;40.70
11239;DHT22;5677;48.488;13.436;2023-04-06T01:15:48;12.20;40.80
11239;DHT22;5677;48.488;13.436;2023-04-06T01:18:15;12.20;40.70
11239;DHT22;5677;48.488;13.436;2023-04-06T01:20:42;12.20;40.80
11239;DHT22;5677;48.488;13.436;2023-04-06T01:23:10;12.10;40.80
11239;DHT22;5677;48.488;13.436;2023-04-06T01:25:37;12.10;40.80
11239;DHT22;5677;48.488;13.436;2023-04-06T01:28:04;12.10;40.80
11239;DHT22;5677;48.488;13.436;2023-04-06T01:30:31;12.10;41.50
11239;DHT22;5677;48.488;13.436;2023-04-06T01:32:57;12.10;40.80
11239;DHT22;5677;48.488;13.436;2023-04-06T01:35:26;12.10;40.90
11239;DHT22;5677;48.488;13.436;2023-04-06T01:37:53;12.10;40.90
11239;DHT22;5677;48.488;13.436;2023-04-06T01:40:21;12.10;40.90
11239;DHT22;5677;48.488;13.436;2023-04-06T01:42:48;12.10;40.90
11239;DHT22;5677;48.488;13.436;2023-04-06T01:45:14;12.10;40.90
11239;DHT22;5677;48.488;13.436;2023-04-06T01:47:41;12.10;41.00
11239;DHT22;5677;48.488;13.436;2023-04-06T01:50:09;12.10;41.00
11239;DHT22;5677;48.488;13.436;2023-04-06T01:52:35;12.10;41.00
11239;DHT22;5677;48.488;13.436;2023-04-06T01:55:02;12.10;41.00
11239;DHT22;5677;48.488;13.436;2023-04-06T01:57:33;12.10;41.00
11239;DHT22;5677;48.488;13.436;2023-04-06T02:00:00;12.10;41.00
11239;DHT22;5677;48.488;13.436;2023-04-06T02:02:27;12.10;41.00
11239;DHT22;5677;48.488;13.436;2023-04-06T02:04:53;12.00;40.90
11239;DHT22;5677;48.488;13.436;2023-04-06T02:07:20;12.10;41.10
11239;DHT22;5677;48.488;13.436;2023-04-06T02:09:47;12.10;41.10
11239;DHT22;5677;48.488;13.436;2023-04-06T02:12:14;12.10;41.10
11239;DHT22;5677;48.488;13.436;2023-04-06T02:14:42;12.00;41.00
11239;DHT22;5677;48.488;13.436;2023-04-06T02:17:09;12.00;41.00
11239;DHT22;5677;48.488;13.436;2023-04-06T02:19:35;12.00;41.00
11239;DHT22;5677;48.488;13.436;2023-04-06T02:22:02;12.00;41.00
11239;DHT22;5677;48.488;13.436;2023-04-06T02:24:29;12.10;41.10
11239;DHT22;5677;48.488;13.436;2023-04-06T02:26:55;12.00;41.00
11239;DHT22;5677;48.488;13.436;2023-04-06T02:29:22;12.00;41.10
11239;DHT22;5677;48.488;13.436;2023-04-06T02:31:50;12.00;41.00
11239;DHT22;5677;48.488;13.436;2023-04-06T02:34:17;12.00;41.10
11239;DHT22;5677;48.488;13.436;2023-04-06T02:36:45;12.00;41.10
11239;DHT22;5677;48.488;13.436;2023-04-06T02:39:12;12.00;41.10
11239;DHT22;5677;48.488;13.436;2023-04-06T02:41:39;12.00;41.20
11239;DHT22;5677;48.488;13.436;2023-04-06T02:44:07;12.00;41.10
11239;DHT22;5677;48.488;13.436;2023-04-06T02:46:34;12.00;41.20
11239;DHT22;5677;48.488;13.436;2023-04-06T02:49:03;12.00;41.20
11239;DHT22;5677;48.488;13.436;2023-04-06T02:51:29;12.00;41.20
11239;DHT22;5677;48.488;13.436;2023-04-06T02:53:56;12.00;41.20
11239;DHT22;5677;48.488;13.436;2023-04-06T02:56:23;12.00;41.20
11239;DHT22;5677;48.488;13.436;2023-04-06T02:58:50;12.00;41.20
11239;DHT22;5677;48.488;13.436;2023-04-06T03:01:16;12.00;41.90
11239;DHT22;5677;48.488;13.436;2023-04-06T03:03:43;12.00;41.20
11239;DHT22;5677;48.488;13.436;2023-04-06T03:06:11;12.00;41.30
11239;DHT22;5677;48.488;13.436;2023-04-06T03:08:38;12.00;41.30
11239;DHT22;5677;48.488;13.436;2023-04-06T03:11:05;12.00;42.00
11239;DHT22;5677;48.488;13.436;2023-04-06T03:13:31;12.00;41.30
11239;DHT22;5677;48.488;13.436;2023-04-06T03:15:58;12.00;41.30
11239;DHT22;5677;48.488;13.436;2023-04-06T03:18:25;12.00;41.30
11239;DHT22;5677;48.488;13.436;2023-04-06T03:20:52;11.90;41.30
11239;DHT22;5677;48.488;13.436;2023-04-06T03:23:21;11.90;41.40
11239;DHT22;5677;48.488;13.436;2023-04-06T03:25:48;12.00;41.40
11239;DHT22;5677;48.488;13.436;2023-04-06T03:28:15;11.90;41.40
11239;DHT22;5677;48.488;13.436;2023-04-06T03:30:42;11.90;41.40
11239;DHT22;5677;48.488;13.436;2023-04-06T03:33:09;11.90;41.40
11239;DHT22;5677;48.488;13.436;2023-04-06T03:35:36;11.90;41.40
11239;DHT22;5677;48.488;13.436;2023-04-06T03:38:02;11.90;41.40
11239;DHT22;5677;48.488;13.436;2023-04-06T03:40:31;11.90;41.40
11239;DHT22;5677;48.488;13.436;2023-04-06T03:42:57;11.90;41.40
11239;DHT22;5677;48.488;13.436;2023-04-06T03:45:24;11.90;41.50
11239;DHT22;5677;48.488;13.436;2023-04-06T03:47:51;11.90;41.40
11239;DHT22;5677;48.488;13.436;2023-04-06T03:50:18;11.90;41.40
11239;DHT22;5677;48.488;13.436;2023-04-06T03:52:44;11.90;41.50
11239;DHT22;5677;48.488;13.436;2023-04-06T03:55:11;11.90;41.40
11239;DHT22;5677;48.488;13.436;2023-04-06T03:57:39;11.90;41.50
11239;DHT22;5677;48.488;13.436;2023-04-06T04:00:08;11.90;41.60
11239;DHT22;5677;48.488;13.436;2023-04-06T04:02:34;11.90;41.60
11239;DHT22;5677;48.488;13.436;2023-04-06T04:05:01;11.80;41.50
11239;DHT22;5677;48.488;13.436;2023-04-06T04:07:28;11.90;41.60
11239;DHT22;5677;48.488;13.436;2023-04-06T04:09:56;11.90;41.70
11239;DHT22;5677;48.488;13.436;2023-04-06T04:12:22;11.90;41.70
11239;DHT22;5677;48.488;13.436;2023-04-06T04:14:50;11.90;41.70
11239;DHT22;5677;48.488;13.436;2023-04-06T04:17:17;11.80;41.70
11239;DHT22;5677;48.488;13.436;2023-04-06T04:19:44;11.80;41.70
11239;DHT22;5677;48.488;13.436;2023-04-06T04:22:11;11.80;41.70
11239;DHT22;5677;48.488;13.436;2023-04-06T04:24:37;11.80;41.70
11239;DHT22;5677;48.488;13.436;2023-04-06T04:27:04;11.80;41.80
11239;DHT22;5677;48.488;13.436;2023-04-06T04:29:31;11.80;41.90
11239;DHT22;5677;48.488;13.436;2023-04-06T04:31:59;11.80;41.10
11239;DHT22;5677;48.488;13.436;2023-04-06T04:34:26;11.80;39.80
11239;DHT22;5677;48.488;13.436;2023-04-06T04:36:53;11.70;38.80
11239;DHT22;5677;48.488;13.436;2023-04-06T04:39:20;11.60;36.30
11239;DHT22;5677;48.488;13.436;2023-04-06T04:41:47;11.50;38.40
11239;DHT22;5677;48.488;13.436;2023-04-06T04:44:14;11.50;39.70
11239;DHT22;5677;48.488;13.436;2023-04-06T04:46:41;11.50;40.10
11239;DHT22;5677;48.488;13.436;2023-04-06T04:49:09;11.50;40.20
11239;DHT22;5677;48.488;13.436;2023-04-06T04:51:36;11.50;40.20
11239;DHT22;5677;48.488;13.436;2023-04-06T04:54:02;11.50;39.90
11239;DHT22;5677;48.488;13.436;2023-04-06T04:56:29;11.50;39.20
11239;DHT22;5677;48.488;13.436;2023-04-06T04:58:56;11.50;39.70
11239;DHT22;5677;48.488;13.436;2023-04-06T05:01:23;11.50;39.90
11239;DHT22;5677;48.488;13.436;2023-04-06T05:03:49;11.60;40.00
11239;DHT22;5677;48.488;13.436;2023-04-06T05:06:18;11.60;39.90
11239;DHT22;5677;48.488;13.436;2023-04-06T05:08:45;11.60;39.90
11239;DHT22;5677;48.488;13.436;2023-04-06T05:11:12;11.60;39.80
11239;DHT22;5677;48.488;13.436;2023-04-06T05:13:39;11.60;39.90
11239;DHT22;5677;48.488;13.436;2023-04-06T05:16:06;11.60;39.80
11239;DHT22;5677;48.488;13.436;2023-04-06T05:18:32;11.60;39.70
11239;DHT22;5677;48.488;13.436;2023-04-06T05:20:59;11.60;39.60
11239;DHT22;5677;48.488;13.436;2023-04-06T05:23:27;11.70;39.70
11239;DHT22;5677;48.488;13.436;2023-04-06T05:25:54;11.70;39.60
11239;DHT22;5677;48.488;13.436;2023-04-06T05:28:21;11.70;39.60
11239;DHT22;5677;48.488;13.436;2023-04-06T05:30:48;11.70;39.50
11239;DHT22;5677;48.488;13.436;2023-04-06T05:33:15;11.70;39.50
11239;DHT22;5677;48.488;13.436;2023-04-06T05:35:41;11.70;39.50
11239;DHT22;5677;48.488;13.436;2023-04-06T05:38:08;11.70;39.40
11239;DHT22;5677;48.488;13.436;2023-04-06T05:40:37;11.80;39.40
11239;DHT22;5677;48.488;13.436;2023-04-06T05:43:06;11.80;38.50
11239;DHT22;5677;48.488;13.436;2023-04-06T05:45:33;11.80;39.10
11239;DHT22;5677;48.488;13.436;2023-04-06T05:48:00;11.80;39.50
11239;DHT22;5677;48.488;13.436;2023-04-06T05:50:27;11.80;39.40
11239;DHT22;5677;48.488;13.436;2023-04-06T05:52:54;11.80;39.40
11239;DHT22;5677;48.488;13.436;2023-04-06T05:55:21;11.80;39.30
11239;DHT22;5677;48.488;13.436;2023-04-06T05:57:49;11.90;39.40
11239;DHT22;5677;48.488;13.436;2023-04-06T06:00:17;11.90;39.40
11239;DHT22;5677;48.488;13.436;2023-04-06T06:02:44;12.00;39.30
11239;DHT22;5677;48.488;13.436;2023-04-06T06:05:11;11.90;38.20
11239;DHT22;5677;48.488;13.436;2023-04-06T06:07:38;11.90;39.00
11239;DHT22;5677;48.488;13.436;2023-04-06T06:10:05;12.00;39.30
11239;DHT22;5677;48.488;13.436;2023-04-06T06:12:32;12.00;39.30
11239;DHT22;5677;48.488;13.436;2023-04-06T06:15:00;12.10;39.60
11239;DHT22;5677;48.488;13.436;2023-04-06T06:17:27;12.00;38.40
11239;DHT22;5677;48.488;13.436;2023-04-06T06:19:54;12.10;39.20
11239;DHT22;5677;48.488;13.436;2023-04-06T06:22:22;12.10;39.50
11239;DHT22;5677;48.488;13.436;2023-04-06T06:24:48;12.20;39.60
11239;DHT22;5677;48.488;13.436;2023-04-06T06:27:16;12.30;40.10
11239;DHT22;5677;48.488;13.436;2023-04-06T06:29:42;12.30;41.00
11239;DHT22;5677;48.488;13.436;2023-04-06T06:32:10;12.40;40.70
11239;DHT22;5677;48.488;13.436;2023-04-06T06:34:37;12.40;40.80
11239;DHT22;5677;48.488;13.436;2023-04-06T06:37:05;12.40;41.10
11239;DHT22;5677;48.488;13.436;2023-04-06T06:39:32;12.50;40.80
11239;DHT22;5677;48.488;13.436;2023-04-06T06:41:59;12.50;33.80
11239;DHT22;5677;48.488;13.436;2023-04-06T06:44:27;12.40;34.60
11239;DHT22;5677;48.488;13.436;2023-04-06T06:46:54;12.30;39.30
11239;DHT22;5677;48.488;13.436;2023-04-06T06:49:22;12.40;43.50
11239;DHT22;5677;48.488;13.436;2023-04-06T06:51:49;12.50;45.10
11239;DHT22;5677;48.488;13.436;2023-04-06T06:54:15;12.60;45.40
11239;DHT22;5677;48.488;13.436;2023-04-06T06:56:42;12.70;45.20
11239;DHT22;5677;48.488;13.436;2023-04-06T06:59:09;12.80;44.80
11239;DHT22;5677;48.488;13.436;2023-04-06T07:01:36;12.90;44.30
11239;DHT22;5677;48.488;13.436;2023-04-06T07:04:03;12.90;43.80
11239;DHT22;5677;48.488;13.436;2023-04-06T07:06:31;12.90;37.40
11239;DHT22;5677;48.488;13.436;2023-04-06T07:08:58;12.90;37.40
11239;DHT22;5677;48.488;13.436;2023-04-06T07:11:25;12.90;39.40
11239;DHT22;5677;48.488;13.436;2023-04-06T07:13:51;12.90;40.60
11239;DHT22;5677;48.488;13.436;2023-04-06T07:16:18;13.00;41.20
11239;DHT22;5677;48.488;13.436;2023-04-06T07:18:45;13.00;41.10
11239;DHT22;5677;48.488;13.436;2023-04-06T07:21:12;13.10;40.90
11239;DHT22;5677;48.488;13.436;2023-04-06T07:23:40;13.20;40.60
11239;DHT22;5677;48.488;13.436;2023-04-06T07:26:07;13.20;40.30
11239;DHT22;5677;48.488;13.436;2023-04-06T07:28:33;13.30;40.30
11239;DHT22;5677;48.488;13.436;2023-04-06T07:31:00;13.30;40.20
11239;DHT22;5677;48.488;13.436;2023-04-06T07:33:27;13.40;40.10
11239;DHT22;5677;48.488;13.436;2023-04-06T07:35:55;13.40;39.90
11239;DHT22;5677;48.488;13.436;2023-04-06T07:38:22;13.40;40.00
11239;DHT22;5677;48.488;13.436;2023-04-06T07:40:50;13.50;39.90
11239;DHT22;5677;48.488;13.436;2023-04-06T07:43:17;13.50;37.30
11239;DHT22;5677;48.488;13.436;2023-04-06T07:45:43;13.40;33.80
11239;DHT22;5677;48.488;13.436;2023-04-06T07:48:10;13.40;35.30
11239;DHT22;5677;48.488;13.436;2023-04-06T07:50:37;13.40;36.50
11239;DHT22;5677;48.488;13.436;2023-04-06T07:53:04;13.50;38.20
11239;DHT22;5677;48.488;13.436;2023-04-06T07:55:31;13.50;38.00
11239;DHT22;5677;48.488;13.436;2023-04-06T07:57:59;13.50;38.10
11239;DHT22;5677;48.488;13.436;2023-04-06T08:00:26;13.50;38.00
11239;DHT22;5677;48.488;13.436;2023-04-06T08:02:52;13.60;38.00
11239;DHT22;5677;48.488;13.436;2023-04-06T08:05:19;13.60;37.90
11239;DHT22;5677;48.488;13.436;2023-04-06T08:07:46;13.60;37.80
11239;DHT22;5677;48.488;13.436;2023-04-06T08:10:13;13.70;37.90
11239;DHT22;5677;48.488;13.436;2023-04-06T08:12:40;13.70;37.80
11239;DHT22;5677;48.488;13.436;2023-04-06T08:15:08;13.70;37.70
11239;DHT22;5677;48.488;13.436;2023-04-06T08:17:35;13.70;37.70
11239;DHT22;5677;48.488;13.436;2023-04-06T08:20:02;13.70;37.50
11239;DHT22;5677;48.488;13.436;2023-04-06T08:22:29;13.70;35.00
11239;DHT22;5677;48.488;13.436;2023-04-06T08:24:56;13.70;32.90
11239;DHT22;5677;48.488;13.436;2023-04-06T08:27:23;13.60;31.40
11239;DHT22;5677;48.488;13.436;2023-04-06T08:29:50;13.60;31.60
11239;DHT22;5677;48.488;13.436;2023-04-06T08:32:18;13.50;32.00
11239;DHT22;5677;48.488;13.436;2023-04-06T08:34:45;13.50;32.60
11239;DHT22;5677;48.488;13.436;2023-04-06T08:37:12;13.50;32.50
11239;DHT22;5677;48.488;13.436;2023-04-06T08:39:39;13.50;31.90
11239;DHT22;5677;48.488;13.436;2023-04-06T08:42:12;13.40;30.60
11239;DHT22;5677;48.488;13.436;2023-04-06T08:44:40;13.40;32.40
11239;DHT22;5677;48.488;13.436;2023-04-06T08:47:07;13.40;34.10
11239;DHT22;5677;48.488;13.436;2023-04-06T08:49:37;13.40;32.00
11239;DHT22;5677;48.488;13.436;2023-04-06T08:52:06;13.50;33.80
11239;DHT22;5677;48.488;13.436;2023-04-06T08:54:33;13.50;34.80
11239;DHT22;5677;48.488;13.436;2023-04-06T08:57:00;13.60;35.50
11239;DHT22;5677;48.488;13.436;2023-04-06T08:59:27;13.60;35.80
11239;DHT22;5677;48.488;13.436;2023-04-06T09:01:55;13.60;36.00
11239;DHT22;5677;48.488;13.436;2023-04-06T09:04:22;13.60;36.00
11239;DHT22;5677;48.488;13.436;2023-04-06T09:06:50;13.60;36.10
11239;DHT22;5677;48.488;13.436;2023-04-06T09:09:17;13.60;36.20
11239;DHT22;5677;48.488;13.436;2023-04-06T09:11:45;13.60;36.30
11239;DHT22;5677;48.488;13.436;2023-04-06T09:14:12;13.60;36.30
11239;DHT22;5677;48.488;13.436;2023-04-06T09:16:41;13.70;37.20
11239;DHT22;5677;48.488;13.436;2023-04-06T09:19:09;13.70;36.30
11239;DHT22;5677;48.488;13.436;2023-04-06T09:21:36;13.80;36.70
11239;DHT22;5677;48.488;13.436;2023-04-06T09:24:05;13.80;37.10
11239;DHT22;5677;48.488;13.436;2023-04-06T09:26:32;13.80;37.50
11239;DHT22;5677;48.488;13.436;2023-04-06T09:29:01;13.90;37.60
11239;DHT22;5677;48.488;13.436;2023-04-06T09:31:30;13.90;38.00
11239;DHT22;5677;48.488;13.436;2023-04-06T09:33:58;13.90;38.20
11239;DHT22;5677;48.488;13.436;2023-04-06T09:36:32;13.90;38.20
11239;DHT22;5677;48.488;13.436;2023-04-06T09:39:00;13.90;38.40
11239;DHT22;5677;48.488;13.436;2023-04-06T09:41:30;13.90;38.40
11239;DHT22;5677;48.488;13.436;2023-04-06T09:44:07;13.90;38.40
11239;DHT22;5677;48.488;13.436;2023-04-06T09:46:35;13.90;38.40
11239;DHT22;5677;48.488;13.436;2023-04-06T09:49:04;13.90;38.50
11239;DHT22;5677;48.488;13.436;2023-04-06T09:51:36;13.90;38.50
11239;DHT22;5677;48.488;13.436;2023-04-06T09:54:04;13.90;38.50
11239;DHT22;5677;48.488;13.436;2023-04-06T09:56:37;13.90;38.60
11239;DHT22;5677;48.488;13.436;2023-04-06T09:59:08;14.00;38.50
11239;DHT22;5677;48.488;13.436;2023-04-06T10:01:36;14.00;38.60
11239;DHT22;5677;48.488;13.436;2023-04-06T10:04:13;13.90;38.60
11239;DHT22;5677;48.488;13.436;2023-04-06T10:06:46;13.90;38.60
11239;DHT22;5677;48.488;13.436;2023-04-06T10:09:17;14.00;38.50
11239;DHT22;5677;48.488;13.436;2023-04-06T10:11:46;13.90;38.70
11239;DHT22;5677;48.488;13.436;2023-04-06T10:14:13;13.90;37.70
11239;DHT22;5677;48.488;13.436;2023-04-06T10:16:41;13.90;37.60
11239;DHT22;5677;48.488;13.436;2023-04-06T10:19:13;13.90;37.90
11239;DHT22;5677;48.488;13.436;2023-04-06T10:21:44;14.00;38.00
11239;DHT22;5677;48.488;13.436;2023-04-06T10:24:12;14.00;38.20
11239;DHT22;5677;48.488;13.436;2023-04-06T10:26:39;13.90;38.30
11239;DHT22;5677;48.488;13.436;2023-04-06T10:29:08;14.00;38.30
11239;DHT22;5677;48.488;13.436;2023-04-06T10:31:40;13.90;38.40
11239;DHT22;5677;48.488;13.436;2023-04-06T10:34:09;13.90;38.40
11239;DHT22;5677;48.488;13.436;2023-04-06T10:36:36;13.90;38.40
11239;DHT22;5677;48.488;13.436;2023-04-06T10:39:04;13.90;38.40
11239;DHT22;5677;48.488;13.436;2023-04-06T10:41:35;13.90;38.50
11239;DHT22;5677;48.488;13.436;2023-04-06T10:44:02;13.90;38.60
11239;DHT22;5677;48.488;13.436;2023-04-06T10:46:33;13.90;38.50
11239;DHT22;5677;48.488;13.436;2023-04-06T10:49:10;14.00;38.60
11239;DHT22;5677;48.488;13.436;2023-04-06T10:51:38;13.90;38.60
11239;DHT22;5677;48.488;13.436;2023-04-06T10:54:06;14.00;38.60
11239;DHT22;5677;48.488;13.436;2023-04-06T10:56:33;14.00;38.60
11239;DHT22;5677;48.488;13.436;2023-04-06T10:59:05;14.00;38.60
11239;DHT22;5677;48.488;13.436;2023-04-06T11:01:33;14.00;38.70
11239;DHT22;5677;48.488;13.436;2023-04-06T11:04:00;14.00;38.70
11239;DHT22;5677;48.488;13.436;2023-04-06T11:06:29;14.00;38.70
11239;DHT22;5677;48.488;13.436;2023-04-06T11:08:57;13.90;38.70
11239;DHT22;5677;48.488;13.436;2023-04-06T11:11:26;13.90;38.70
11239;DHT22;5677;48.488;13.436;2023-04-06T11:13:54;13.90;38.80
11239;DHT22;5677;48.488;13.436;2023-04-06T11:16:22;13.90;38.80
11239;DHT22;5677;48.488;13.436;2023-04-06T11:18:52;13.90;38.90
11239;DHT22;5677;48.488;13.436;2023-04-06T11:21:32;13.90;39.00
11239;DHT22;5677;48.488;13.436;2023-04-06T11:24:09;13.90;39.10
11239;DHT22;5677;48.488;13.436;2023-04-06T11:26:41;13.90;39.00
11239;DHT22;5677;48.488;13.436;2023-04-06T11:29:09;13.80;39.00
11239;DHT22;5677;48.488;13.436;2023-04-06T11:31:40;13.90;39.10
11239;DHT22;5677;48.488;13.436;2023-04-06T11:34:13;13.80;39.10
11239;DHT22;5677;48.488;13.436;2023-04-06T11:36:41;13.80;38.20
11239;DHT22;5677;48.488;13.436;2023-04-06T11:39:08;13.80;33.40
11239;DHT22;5677;48.488;13.436;2023-04-06T11:41:35;13.70;35.00
11239;DHT22;5677;48.488;13.436;2023-04-06T11:44:03;13.80;37.10
11239;DHT22;5677;48.488;13.436;2023-04-06T11:46:30;13.80;38.00
11239;DHT22;5677;48.488;13.436;2023-04-06T11:48:58;13.80;38.10
11239;DHT22;5677;48.488;13.436;2023-04-06T11:51:27;13.80;36.60
11239;DHT22;5677;48.488;13.436;2023-04-06T11:53:54;13.90;35.00
11239;DHT22;5677;48.488;13.436;2023-04-06T11:56:26;13.80;37.00
11239;DHT22;5677;48.488;13.436;2023-04-06T11:58:55;13.90;38.50
11239;DHT22;5677;48.488;13.436;2023-04-06T12:01:21;13.90;39.40
11239;DHT22;5677;48.488;13.436;2023-04-06T12:03:48;14.00;40.80
11239;DHT22;5677;48.488;13.436;2023-04-06T12:06:15;14.00;40.80
11239;DHT22;5677;48.488;13.436;2023-04-06T12:08:43;14.00;38.60
11239;DHT22;5677;48.488;13.436;2023-04-06T12:11:11;14.00;33.00
11239;DHT22;5677;48.488;13.436;2023-04-06T12:13:37;14.00;33.10
11239;DHT22;5677;48.488;13.436;2023-04-06T12:16:05;13.80;29.40
11239;DHT22;5677;48.488;13.436;2023-04-06T12:18:32;13.70;28.40
11239;DHT22;5677;48.488;13.436;2023-04-06T12:20:58;13.60;28.70
11239;DHT22;5677;48.488;13.436;2023-04-06T12:23:25;13.60;30.10
11239;DHT22;5677;48.488;13.436;2023-04-06T12:25:53;13.70;31.90
11239;DHT22;5677;48.488;13.436;2023-04-06T12:28:20;13.60;32.70
11239;DHT22;5677;48.488;13.436;2023-04-06T12:30:48;13.70;33.40
11239;DHT22;5677;48.488;13.436;2023-04-06T12:33:15;13.70;34.00
11239;DHT22;5677;48.488;13.436;2023-04-06T12:35:42;13.70;34.40
11239;DHT22;5677;48.488;13.436;2023-04-06T12:38:09;13.70;34.70
11239;DHT22;5677;48.488;13.436;2023-04-06T12:40:37;13.80;35.00
11239;DHT22;5677;48.488;13.436;2023-04-06T12:43:05;13.80;35.30
11239;DHT22;5677;48.488;13.436;2023-04-06T12:45:32;13.80;35.50
11239;DHT22;5677;48.488;13.436;2023-04-06T12:47:59;13.80;35.60
11239;DHT22;5677;48.488;13.436;2023-04-06T12:50:26;13.80;35.80
11239;DHT22;5677;48.488;13.436;2023-04-06T12:52:53;13.80;35.90
11239;DHT22;5677;48.488;13.436;2023-04-06T12:55:20;13.90;36.10
11239;DHT22;5677;48.488;13.436;2023-04-06T12:57:47;13.90;36.10
11239;DHT22;5677;48.488;13.436;2023-04-06T13:00:16;13.90;36.20
11239;DHT22;5677;48.488;13.436;2023-04-06T13:02:43;13.90;36.20
11239;DHT22;5677;48.488;13.436;2023-04-06T13:05:12;13.90;36.10
11239;DHT22;5677;48.488;13.436;2023-04-06T13:07:40;13.90;34.60
11239;DHT22;5677;48.488;13.436;2023-04-06T13:10:07;13.90;35.40
11239;DHT22;5677;48.488;13.436;2023-04-06T13:12:34;14.00;35.90
11239;DHT22;5677;48.488;13.436;2023-04-06T13:15:01;14.00;36.60
11239;DHT22;5677;48.488;13.436;2023-04-06T13:17:29;14.00;37.00
11239;DHT22;5677;48.488;13.436;2023-04-06T13:19:56;14.10;37.30
11239;DHT22;5677;48.488;13.436;2023-04-06T13:22:23;14.10;37.30
11239;DHT22;5677;48.488;13.436;2023-04-06T13:24:50;14.10;37.40
11239;DHT22;5677;48.488;13.436;2023-04-06T13:27:16;14.10;37.40
11239;DHT22;5677;48.488;13.436;2023-04-06T13:29:43;14.10;37.50
11239;DHT22;5677;48.488;13.436;2023-04-06T13:32:10;14.10;37.50
11239;DHT22;5677;48.488;13.436;2023-04-06T13:34:40;14.10;37.60
11239;DHT22;5677;48.488;13.436;2023-04-06T13:37:10;14.10;37.60
11239;DHT22;5677;48.488;13.436;2023-04-06T13:39:37;14.20;37.70
11239;DHT22;5677;48.488;13.436;2023-04-06T13:42:04;14.10;37.60
11239;DHT22;5677;48.488;13.436;2023-04-06T13:44:32;14.20;38.30
11239;DHT22;5677;48.488;13.436;2023-04-06T13:46:59;14.20;37.70
11239;DHT22;5677;48.488;13.436;2023-04-06T13:49:25;14.20;37.70
11239;DHT22;5677;48.488;13.436;2023-04-06T13:51:54;14.10;37.70
11239;DHT22;5677;48.488;13.436;2023-04-06T13:54:21;14.10;37.80
11239;DHT22;5677;48.488;13.436;2023-04-06T13:56:47;14.20;38.10
11239;DHT22;5677;48.488;13.436;2023-04-06T13:59:14;14.20;38.30
11239;DHT22;5677;48.488;13.436;2023-04-06T14:01:41;14.20;38.40
11239;DHT22;5677;48.488;13.436;2023-04-06T14:04:08;14.20;38.40
11239;DHT22;5677;48.488;13.436;2023-04-06T14:06:36;14.20;38.30
11239;DHT22;5677;48.488;13.436;2023-04-06T14:09:04;14.20;38.20
11239;DHT22;5677;48.488;13.436;2023-04-06T14:11:31;14.20;38.20
11239;DHT22;5677;48.488;13.436;2023-04-06T14:13:59;14.20;38.20
11239;DHT22;5677;48.488;13.436;2023-04-06T14:16:26;14.20;38.20
11239;DHT22;5677;48.488;13.436;2023-04-06T14:18:52;14.20;38.20
11239;DHT22;5677;48.488;13.436;2023-04-06T14:21:20;14.20;38.20
11239;DHT22;5677;48.488;13.436;2023-04-06T14:23:47;14.10;38.30
11239;DHT22;5677;48.488;13.436;2023-04-06T14:26:15;14.10;38.30
11239;DHT22;5677;48.488;13.436;2023-04-06T14:28:42;14.10;38.30
11239;DHT22;5677;48.488;13.436;2023-04-06T14:31:14;14.10;38.40
11239;DHT22;5677;48.488;13.436;2023-04-06T14:33:41;14.10;38.40
11239;DHT22;5677;48.488;13.436;2023-04-06T14:36:09;14.10;38.90
11239;DHT22;5677;48.488;13.436;2023-04-06T14:38:36;14.20;38.40
11239;DHT22;5677;48.488;13.436;2023-04-06T14:41:03;14.20;38.40
11239;DHT22;5677;48.488;13.436;2023-04-06T14:43:32;14.10;38.40
11239;DHT22;5677;48.488;13.436;2023-04-06T14:46:02;14.10;38.70
11239;DHT22;5677;48.488;13.436;2023-04-06T14:48:31;14.20;38.80
11239;DHT22;5677;48.488;13.436;2023-04-06T14:50:57;14.20;38.70
11239;DHT22;5677;48.488;13.436;2023-04-06T14:53:25;14.20;38.50
11239;DHT22;5677;48.488;13.436;2023-04-06T14:55:52;14.20;38.40
11239;DHT22;5677;48.488;13.436;2023-04-06T14:58:19;14.20;38.70
11239;DHT22;5677;48.488;13.436;2023-04-06T15:00:47;14.20;39.60
11239;DHT22;5677;48.488;13.436;2023-04-06T15:03:14;14.20;38.90
11239;DHT22;5677;48.488;13.436;2023-04-06T15:05:41;14.20;38.70
11239;DHT22;5677;48.488;13.436;2023-04-06T15:08:08;14.20;38.90
11239;DHT22;5677;48.488;13.436;2023-04-06T15:10:35;14.20;39.30
11239;DHT22;5677;48.488;13.436;2023-04-06T15:13:02;14.20;39.60
11239;DHT22;5677;48.488;13.436;2023-04-06T15:15:29;14.20;39.90
11239;DHT22;5677;48.488;13.436;2023-04-06T15:17:58;14.20;40.00
11239;DHT22;5677;48.488;13.436;2023-04-06T15:20:27;14.20;39.90
11239;DHT22;5677;48.488;13.436;2023-04-06T15:22:54;14.20;39.80
11239;DHT22;5677;48.488;13.436;2023-04-06T15:25:20;14.30;39.70
11239;DHT22;5677;48.488;13.436;2023-04-06T15:27:47;14.20;39.70
11239;DHT22;5677;48.488;13.436;2023-04-06T15:30:14;14.20;39.60
11239;DHT22;5677;48.488;13.436;2023-04-06T15:32:46;14.20;39.50